createdAt,value
2023-05-02T00:05:51.134Z,7.53
2023-05-02T00:11:52.661Z,8.32
2023-05-02T00:17:54.326Z,10.40
2023-05-02T00:23:57.458Z,8.25
2023-05-02T00:30:00.334Z,9.38
2023-05-02T00:36:02.191Z,10.13
2023-05-02T00:42:03.824Z,8.80
2023-05-02T00:48:05.551Z,8.53
2023-05-02T00:54:07.083Z,8.43
2023-05-02T01:00:08.851Z,9.80
2023-05-02T01:06:16.637Z,9.87
2023-05-02T01:12:23.988Z,9.93
2023-05-02T01:18:28.037Z,9.17
2023-05-02T01:24:32.613Z,9.60
2023-05-02T01:30:35.682Z,11.32
2023-05-02T01:36:38.778Z,9.60
2023-05-02T01:42:40.747Z,8.38
2023-05-02T01:48:44.476Z,9.57
2023-05-02T01:54:46.310Z,9.63
2023-05-02T02:00:47.959Z,11.13
2023-05-02T02:06:52.011Z,8.80
2023-05-02T02:12:57.964Z,11.38
2023-05-02T02:19:02.235Z,9.30
2023-05-02T02:25:08.655Z,8.65
2023-05-02T02:31:10.119Z,9.43
2023-05-02T02:37:16.571Z,9.57
2023-05-02T02:43:44.001Z,8.20
2023-05-02T02:49:49.105Z,8.10
2023-05-02T02:55:55.767Z,9.38
2023-05-02T03:02:08.604Z,8.15
2023-05-02T03:08:10.392Z,8.37
2023-05-02T03:14:12.303Z,9.07
2023-05-02T03:20:13.998Z,8.17
2023-05-02T03:26:17.595Z,10.20
2023-05-02T03:32:19.698Z,8.75
2023-05-02T03:38:21.752Z,8.30
2023-05-02T03:44:24.954Z,9.57
2023-05-02T03:50:27.069Z,7.23
2023-05-02T03:56:29.214Z,8.10
2023-05-02T04:02:47.955Z,8.07
2023-05-02T04:08:55.739Z,8.47
2023-05-02T04:14:57.362Z,10.25
2023-05-02T04:21:02.404Z,9.30
2023-05-02T04:27:04.580Z,7.72
2023-05-02T04:33:06.881Z,8.48
2023-05-02T04:39:12.957Z,7.90
2023-05-02T04:45:20.394Z,6.43
2023-05-02T04:51:22.241Z,8.27
2023-05-02T04:57:24.682Z,8.82
2023-05-02T05:03:30.813Z,6.78
2023-05-02T05:09:33.249Z,6.17
2023-05-02T05:15:34.956Z,8.48
2023-05-02T05:21:37.906Z,6.47
2023-05-02T05:27:40.493Z,5.82
2023-05-02T05:33:43.982Z,7.53
2023-05-02T05:39:46.566Z,9.13
2023-05-02T05:45:51.812Z,7.53
2023-05-02T05:51:53.403Z,6.47
2023-05-02T05:57:55.058Z,9.65
2023-05-02T06:03:56.758Z,7.35
2023-05-02T06:09:58.652Z,6.90
2023-05-02T06:16:03.378Z,6.55
2023-05-02T06:22:05.679Z,7.50
2023-05-02T06:28:07.355Z,7.80
2023-05-02T06:34:08.738Z,8.68
2023-05-02T06:40:10.392Z,8.73
2023-05-02T06:46:12.051Z,9.98
2023-05-02T06:52:13.601Z,10.50
2023-05-02T06:58:16.557Z,11.60
2023-05-02T07:04:18.056Z,11.50
2023-05-02T07:10:19.558Z,8.07
2023-05-02T07:16:21.189Z,9.60
2023-05-02T07:22:23.522Z,8.40
2023-05-02T07:28:25.260Z,10.70
2023-05-02T07:34:26.719Z,9.05
2023-05-02T07:40:28.547Z,9.23
2023-05-02T07:46:31.757Z,9.75
2023-05-02T07:52:33.845Z,12.03
2023-05-02T07:58:36.352Z,12.38
2023-05-02T08:04:41.112Z,9.75
2023-05-02T08:10:43.420Z,15.77
2023-05-02T08:16:46.390Z,20.90
2023-05-02T08:22:49.069Z,22.77
2023-05-02T08:28:51.325Z,22.63
2023-05-02T08:34:57.024Z,22.77
2023-05-02T08:40:58.634Z,24.20
2023-05-02T08:47:00.533Z,22.60
2023-05-02T08:53:04.673Z,25.77
2023-05-02T08:59:06.553Z,22.38
2023-05-02T09:05:09.641Z,28.30
2023-05-02T09:11:13.632Z,25.60
2023-05-02T09:17:15.121Z,24.50
2023-05-02T09:23:16.549Z,27.07
2023-05-02T09:29:19.706Z,23.80
2023-05-02T09:35:24.178Z,26.58
2023-05-02T09:41:25.640Z,27.37
2023-05-02T09:47:27.423Z,24.42
2023-05-02T09:53:31.149Z,26.03
2023-05-02T09:59:32.721Z,22.13
2023-05-02T10:05:37.048Z,23.95
2023-05-02T10:11:42.263Z,25.03
2023-05-02T10:17:47.271Z,24.83
2023-05-02T10:23:49.113Z,17.27
2023-05-02T10:29:51.207Z,17.70
2023-05-02T10:35:54.625Z,15.25
2023-05-02T10:41:58.480Z,19.27
2023-05-02T10:48:18.819Z,14.75
2023-05-02T10:54:20.929Z,14.47
2023-05-02T11:00:22.850Z,12.70
2023-05-02T11:06:26.001Z,13.38
2023-05-02T11:12:46.918Z,14.20
2023-05-02T11:18:58.267Z,11.73
2023-05-02T11:25:00.096Z,12.17
2023-05-02T11:31:01.747Z,12.52
2023-05-02T11:37:10.599Z,10.77
2023-05-02T11:43:16.023Z,9.83
2023-05-02T11:49:19.465Z,13.13
2023-05-02T11:55:21.275Z,10.77
2023-05-02T12:01:23.059Z,10.35
2023-05-02T12:07:34.024Z,9.98
2023-05-02T12:13:35.576Z,8.67
2023-05-02T12:19:37.947Z,10.18
2023-05-02T12:25:40.134Z,8.93
2023-05-02T12:31:50.784Z,8.63
2023-05-02T12:37:53.277Z,7.85
2023-05-02T12:43:54.779Z,7.83
2023-05-02T12:49:57.468Z,9.55
2023-05-02T12:56:03.725Z,9.23
2023-05-02T13:02:05.171Z,7.75
2023-05-02T13:08:06.635Z,8.15
2023-05-02T13:14:08.100Z,6.17
2023-05-02T13:20:09.959Z,5.88
2023-05-02T13:26:11.586Z,7.77
2023-05-02T13:32:13.667Z,10.95
2023-05-02T13:38:15.161Z,8.27
2023-05-02T13:44:16.595Z,10.07
2023-05-02T13:50:18.036Z,9.23
2023-05-02T13:56:20.887Z,7.77
2023-05-02T14:02:22.651Z,12.75
2023-05-02T14:08:24.190Z,9.60
2023-05-02T14:14:25.934Z,9.97
2023-05-02T14:20:28.356Z,11.68
2023-05-02T14:26:29.948Z,8.97
2023-05-02T14:32:31.654Z,11.25
2023-05-02T14:38:34.211Z,7.95
2023-05-02T14:44:35.664Z,8.93
2023-05-02T14:50:37.572Z,8.77
2023-05-02T14:56:39.028Z,11.97
2023-05-02T15:02:40.598Z,11.75
2023-05-02T15:08:44.902Z,7.10
2023-05-02T15:14:46.344Z,8.33
2023-05-02T15:20:48.376Z,7.95
2023-05-02T15:26:51.411Z,8.83
2023-05-02T15:32:53.186Z,10.48
2023-05-02T15:38:54.773Z,8.68
2023-05-02T15:44:56.275Z,7.83
2023-05-02T15:50:57.803Z,8.27
2023-05-02T15:56:59.292Z,9.10
2023-05-02T16:03:01.908Z,7.78
2023-05-02T16:09:06.574Z,6.32
2023-05-02T16:15:08.377Z,6.27
2023-05-02T16:21:09.929Z,6.68
2023-05-02T16:27:12.859Z,8.13
2023-05-02T16:33:15.161Z,7.10
2023-05-02T16:39:16.844Z,5.47
2023-05-02T16:45:20.895Z,7.30
2023-05-02T16:51:22.895Z,7.57
2023-05-02T16:57:24.439Z,5.50
2023-05-02T17:03:25.995Z,7.35
2023-05-02T17:09:29.760Z,6.47
2023-05-02T17:15:35.676Z,9.63
2023-05-02T17:21:37.590Z,6.50
2023-05-02T17:27:48.103Z,5.07
2023-05-02T17:33:49.741Z,10.25
2023-05-02T17:39:51.227Z,8.38
2023-05-02T17:45:53.288Z,6.50
2023-05-02T17:51:55.060Z,9.57
2023-05-02T17:57:59.170Z,8.87
2023-05-02T18:04:01.376Z,11.20
2023-05-02T18:10:05.141Z,8.85
2023-05-02T18:16:09.921Z,9.77
2023-05-02T18:22:11.476Z,9.95
2023-05-02T18:28:15.458Z,10.47
2023-05-02T18:34:17.159Z,8.55
2023-05-02T18:40:19.158Z,11.68
2023-05-02T18:46:21.287Z,11.50
2023-05-02T18:52:26.579Z,8.02
2023-05-02T18:58:28.594Z,11.07
2023-05-02T19:04:31.326Z,8.00
2023-05-02T19:10:33.917Z,12.55
2023-05-02T19:16:40.137Z,7.53
2023-05-02T19:22:43.038Z,8.68
2023-05-02T19:28:45.001Z,11.73
2023-05-02T19:34:47.196Z,12.52
2023-05-02T19:40:50.457Z,11.65
2023-05-02T19:46:52.133Z,11.63
2023-05-02T19:52:53.769Z,11.75
2023-05-02T19:58:56.816Z,8.80
2023-05-02T20:04:58.375Z,8.55
2023-05-02T20:11:01.226Z,10.40
2023-05-02T20:17:03.187Z,10.77
2023-05-02T20:23:05.820Z,8.35
2023-05-02T20:29:09.765Z,8.07
2023-05-02T20:35:11.503Z,9.10
2023-05-02T20:41:14.388Z,8.27
2023-05-02T20:47:16.228Z,7.53
2023-05-02T20:53:19.114Z,7.13
2023-05-02T20:59:20.703Z,8.27
2023-05-02T21:05:22.209Z,6.82
2023-05-02T21:11:24.044Z,8.18
2023-05-02T21:17:26.408Z,7.83
2023-05-02T21:23:27.843Z,6.13
2023-05-02T21:29:29.394Z,6.33
2023-05-02T21:35:34.020Z,7.68
2023-05-02T21:41:35.580Z,7.85
2023-05-02T21:47:37.067Z,5.33
2023-05-02T21:53:40.061Z,5.68
2023-05-02T21:59:41.675Z,7.40
2023-05-02T22:05:43.769Z,4.88
2023-05-02T22:11:45.169Z,6.45
2023-05-02T22:17:46.556Z,4.97
2023-05-02T22:23:48.261Z,7.53
2023-05-02T22:29:49.719Z,5.60
2023-05-02T22:35:51.334Z,5.65
2023-05-02T22:41:52.773Z,5.72
2023-05-02T22:47:54.231Z,6.40
2023-05-02T22:53:55.693Z,4.60
2023-05-02T22:59:57.303Z,5.77
2023-05-02T23:05:58.802Z,6.50
2023-05-02T23:12:00.230Z,5.78
2023-05-02T23:18:03.166Z,6.10
2023-05-02T23:24:04.848Z,5.13
2023-05-02T23:30:06.799Z,4.97
2023-05-02T23:36:09.023Z,5.95
2023-05-02T23:42:10.491Z,8.13
2023-05-02T23:48:11.953Z,4.80
2023-05-02T23:54:14.024Z,8.73
